sensor_id;sensor_type;location;lat;lon;timestamp;P1;durP1;ratioP1;P2;durP2;ratioP2
16522;SDS011;19889;52.546;13.348;2023-04-01T00:00:45;3.97;;;2.90;;
16522;SDS011;19889;52.546;13.348;2023-04-01T00:03:12;2.63;;;2.10;;
16522;SDS011;19889;52.546;13.348;2023-04-01T00:05:39;3.23;;;2.40;;
16522;SDS011;19889;52.546;13.348;2023-04-01T00:08:06;2.87;;;1.93;;
16522;SDS011;19889;52.546;13.348;2023-04-01T00:10:33;4.20;;;2.47;;
16522;SDS011;19889;52.546;13.348;2023-04-01T00:13:02;2.10;;;1.90;;
16522;SDS011;19889;52.546;13.348;2023-04-01T00:15:29;3.37;;;2.17;;
16522;SDS011;19889;52.546;13.348;2023-04-01T00:17:56;2.00;;;1.80;;
16522;SDS011;19889;52.546;13.348;2023-04-01T00:20:24;2.97;;;1.97;;
16522;SDS011;19889;52.546;13.348;2023-04-01T00:22:51;3.33;;;2.23;;
16522;SDS011;19889;52.546;13.348;2023-04-01T00:25:18;5.23;;;2.30;;
16522;SDS011;19889;52.546;13.348;2023-04-01T00:27:45;2.90;;;2.47;;
16522;SDS011;19889;52.546;13.348;2023-04-01T00:30:13;2.37;;;1.93;;
16522;SDS011;19889;52.546;13.348;2023-04-01T00:32:41;5.23;;;2.17;;
16522;SDS011;19889;52.546;13.348;2023-04-01T00:35:08;2.90;;;2.13;;
16522;SDS011;19889;52.546;13.348;2023-04-01T00:37:36;2.93;;;2.23;;
16522;SDS011;19889;52.546;13.348;2023-04-01T00:40:19;4.63;;;2.00;;
16522;SDS011;19889;52.546;13.348;2023-04-01T00:42:50;2.47;;;2.23;;
16522;SDS011;19889;52.546;13.348;2023-04-01T00:45:25;3.60;;;1.90;;
16522;SDS011;19889;52.546;13.348;2023-04-01T00:47:55;2.43;;;1.97;;
16522;SDS011;19889;52.546;13.348;2023-04-01T00:50:25;2.07;;;1.83;;
16522;SDS011;19889;52.546;13.348;2023-04-01T00:52:53;2.00;;;1.80;;
16522;SDS011;19889;52.546;13.348;2023-04-01T00:55:20;4.27;;;2.10;;
16522;SDS011;19889;52.546;13.348;2023-04-01T00:57:49;3.83;;;2.03;;
16522;SDS011;19889;52.546;13.348;2023-04-01T01:00:18;3.03;;;2.40;;
16522;SDS011;19889;52.546;13.348;2023-04-01T01:02:47;2.67;;;1.67;;
16522;SDS011;19889;52.546;13.348;2023-04-01T01:05:17;4.83;;;2.20;;
16522;SDS011;19889;52.546;13.348;2023-04-01T01:07:49;2.40;;;1.73;;
16522;SDS011;19889;52.546;13.348;2023-04-01T01:10:24;3.63;;;2.20;;
16522;SDS011;19889;52.546;13.348;2023-04-01T01:12:57;2.63;;;2.10;;
16522;SDS011;19889;52.546;13.348;2023-04-01T01:15:36;3.90;;;2.27;;
16522;SDS011;19889;52.546;13.348;2023-04-01T01:18:12;3.00;;;2.10;;
16522;SDS011;19889;52.546;13.348;2023-04-01T01:20:52;2.37;;;2.00;;
16522;SDS011;19889;52.546;13.348;2023-04-01T01:26:46;2.40;;;2.20;;
16522;SDS011;19889;52.546;13.348;2023-04-01T01:32:26;2.70;;;1.87;;
16522;SDS011;19889;52.546;13.348;2023-04-01T01:35:20;3.50;;;2.03;;
16522;SDS011;19889;52.546;13.348;2023-04-01T01:37:51;4.33;;;2.00;;
16522;SDS011;19889;52.546;13.348;2023-04-01T01:40:21;3.33;;;2.17;;
16522;SDS011;19889;52.546;13.348;2023-04-01T01:42:51;3.03;;;2.33;;
16522;SDS011;19889;52.546;13.348;2023-04-01T01:45:23;4.17;;;2.27;;
16522;SDS011;19889;52.546;13.348;2023-04-01T01:47:52;2.20;;;1.87;;
16522;SDS011;19889;52.546;13.348;2023-04-01T01:50:24;2.70;;;2.00;;
16522;SDS011;19889;52.546;13.348;2023-04-01T01:53:00;2.00;;;1.70;;
16522;SDS011;19889;52.546;13.348;2023-04-01T01:55:28;3.97;;;2.30;;
16522;SDS011;19889;52.546;13.348;2023-04-01T01:57:58;4.80;;;1.70;;
16522;SDS011;19889;52.546;13.348;2023-04-01T02:00:28;3.97;;;2.30;;
16522;SDS011;19889;52.546;13.348;2023-04-01T02:02:56;3.00;;;2.00;;
16522;SDS011;19889;52.546;13.348;2023-04-01T02:05:26;3.80;;;1.87;;
16522;SDS011;19889;52.546;13.348;2023-04-01T02:08:02;4.17;;;2.20;;
16522;SDS011;19889;52.546;13.348;2023-04-01T02:10:34;3.73;;;2.00;;
16522;SDS011;19889;52.546;13.348;2023-04-01T02:13:05;3.63;;;1.73;;
16522;SDS011;19889;52.546;13.348;2023-04-01T02:15:37;2.57;;;1.90;;
16522;SDS011;19889;52.546;13.348;2023-04-01T02:18:11;3.07;;;1.70;;
16522;SDS011;19889;52.546;13.348;2023-04-01T02:20:41;2.07;;;1.60;;
16522;SDS011;19889;52.546;13.348;2023-04-01T02:23:09;4.43;;;1.60;;
16522;SDS011;19889;52.546;13.348;2023-04-01T02:25:37;2.90;;;1.63;;
16522;SDS011;19889;52.546;13.348;2023-04-01T02:28:06;3.67;;;1.40;;
16522;SDS011;19889;52.546;13.348;2023-04-01T02:30:35;3.50;;;1.63;;
16522;SDS011;19889;52.546;13.348;2023-04-01T02:33:05;2.37;;;1.80;;
16522;SDS011;19889;52.546;13.348;2023-04-01T02:35:33;6.93;;;1.70;;
16522;SDS011;19889;52.546;13.348;2023-04-01T02:38:03;3.50;;;1.97;;
16522;SDS011;19889;52.546;13.348;2023-04-01T02:40:40;3.00;;;1.47;;
16522;SDS011;19889;52.546;13.348;2023-04-01T02:43:09;2.40;;;1.80;;
16522;SDS011;19889;52.546;13.348;2023-04-01T02:45:36;3.37;;;1.73;;
16522;SDS011;19889;52.546;13.348;2023-04-01T02:48:03;3.10;;;1.70;;
16522;SDS011;19889;52.546;13.348;2023-04-01T02:50:31;2.27;;;1.80;;
16522;SDS011;19889;52.546;13.348;2023-04-01T02:52:58;2.97;;;1.57;;
16522;SDS011;19889;52.546;13.348;2023-04-01T02:55:26;5.70;;;2.00;;
16522;SDS011;19889;52.546;13.348;2023-04-01T02:57:53;5.33;;;1.70;;
16522;SDS011;19889;52.546;13.348;2023-04-01T03:00:20;3.13;;;1.50;;
16522;SDS011;19889;52.546;13.348;2023-04-01T03:02:47;3.47;;;1.93;;
16522;SDS011;19889;52.546;13.348;2023-04-01T03:05:14;2.37;;;1.40;;
16522;SDS011;19889;52.546;13.348;2023-04-01T03:07:41;1.87;;;1.63;;
16522;SDS011;19889;52.546;13.348;2023-04-01T03:10:08;4.63;;;2.00;;
16522;SDS011;19889;52.546;13.348;2023-04-01T03:12:37;2.30;;;1.90;;
16522;SDS011;19889;52.546;13.348;2023-04-01T03:15:05;3.00;;;1.67;;
16522;SDS011;19889;52.546;13.348;2023-04-01T03:17:32;2.60;;;1.60;;
16522;SDS011;19889;52.546;13.348;2023-04-01T03:19:59;2.70;;;2.33;;
16522;SDS011;19889;52.546;13.348;2023-04-01T03:22:28;3.80;;;2.13;;
16522;SDS011;19889;52.546;13.348;2023-04-01T03:24:55;3.20;;;1.90;;
16522;SDS011;19889;52.546;13.348;2023-04-01T03:27:22;4.17;;;2.10;;
16522;SDS011;19889;52.546;13.348;2023-04-01T03:29:50;2.70;;;2.13;;
16522;SDS011;19889;52.546;13.348;2023-04-01T03:32:25;5.20;;;2.00;;
16522;SDS011;19889;52.546;13.348;2023-04-01T03:34:53;7.40;;;2.17;;
16522;SDS011;19889;52.546;13.348;2023-04-01T03:37:20;3.33;;;2.07;;
16522;SDS011;19889;52.546;13.348;2023-04-01T03:39:47;3.90;;;2.43;;
16522;SDS011;19889;52.546;13.348;2023-04-01T03:42:14;3.10;;;1.70;;
16522;SDS011;19889;52.546;13.348;2023-04-01T03:44:41;2.90;;;1.77;;
16522;SDS011;19889;52.546;13.348;2023-04-01T03:47:11;2.83;;;1.57;;
16522;SDS011;19889;52.546;13.348;2023-04-01T03:49:38;2.43;;;1.80;;
16522;SDS011;19889;52.546;13.348;2023-04-01T03:52:07;2.90;;;1.90;;
16522;SDS011;19889;52.546;13.348;2023-04-01T03:54:35;2.43;;;1.73;;
16522;SDS011;19889;52.546;13.348;2023-04-01T03:57:02;2.83;;;1.43;;
16522;SDS011;19889;52.546;13.348;2023-04-01T03:59:30;2.47;;;1.90;;
16522;SDS011;19889;52.546;13.348;2023-04-01T04:01:57;2.77;;;1.87;;
16522;SDS011;19889;52.546;13.348;2023-04-01T04:04:26;3.83;;;2.13;;
16522;SDS011;19889;52.546;13.348;2023-04-01T04:06:54;4.23;;;2.37;;
16522;SDS011;19889;52.546;13.348;2023-04-01T04:09:22;6.60;;;2.40;;
16522;SDS011;19889;52.546;13.348;2023-04-01T04:11:49;3.70;;;2.17;;
16522;SDS011;19889;52.546;13.348;2023-04-01T04:14:16;2.93;;;1.97;;
16522;SDS011;19889;52.546;13.348;2023-04-01T04:16:44;3.27;;;2.60;;
16522;SDS011;19889;52.546;13.348;2023-04-01T04:19:11;2.67;;;2.10;;
16522;SDS011;19889;52.546;13.348;2023-04-01T04:21:40;3.50;;;2.33;;
16522;SDS011;19889;52.546;13.348;2023-04-01T04:24:08;4.70;;;2.40;;
16522;SDS011;19889;52.546;13.348;2023-04-01T04:26:59;4.77;;;2.10;;
16522;SDS011;19889;52.546;13.348;2023-04-01T04:29:26;3.10;;;1.97;;
16522;SDS011;19889;52.546;13.348;2023-04-01T04:31:53;3.07;;;2.30;;
16522;SDS011;19889;52.546;13.348;2023-04-01T04:34:20;2.37;;;2.13;;
16522;SDS011;19889;52.546;13.348;2023-04-01T04:36:49;2.43;;;2.20;;
16522;SDS011;19889;52.546;13.348;2023-04-01T04:39:16;3.73;;;2.07;;
16522;SDS011;19889;52.546;13.348;2023-04-01T04:41:43;3.67;;;2.30;;
16522;SDS011;19889;52.546;13.348;2023-04-01T04:44:10;3.73;;;2.27;;
16522;SDS011;19889;52.546;13.348;2023-04-01T04:46:38;4.57;;;2.17;;
16522;SDS011;19889;52.546;13.348;2023-04-01T04:49:11;3.90;;;2.20;;
16522;SDS011;19889;52.546;13.348;2023-04-01T04:51:38;3.47;;;2.23;;
16522;SDS011;19889;52.546;13.348;2023-04-01T04:54:07;3.87;;;2.00;;
16522;SDS011;19889;52.546;13.348;2023-04-01T04:56:53;2.57;;;2.07;;
16522;SDS011;19889;52.546;13.348;2023-04-01T04:59:21;2.37;;;1.93;;
16522;SDS011;19889;52.546;13.348;2023-04-01T05:02:03;3.00;;;2.30;;
16522;SDS011;19889;52.546;13.348;2023-04-01T05:04:33;4.10;;;2.23;;
16522;SDS011;19889;52.546;13.348;2023-04-01T05:07:01;4.70;;;2.27;;
16522;SDS011;19889;52.546;13.348;2023-04-01T05:09:31;4.20;;;2.40;;
16522;SDS011;19889;52.546;13.348;2023-04-01T05:11:59;5.43;;;2.17;;
16522;SDS011;19889;52.546;13.348;2023-04-01T05:14:32;5.57;;;2.67;;
16522;SDS011;19889;52.546;13.348;2023-04-01T05:17:08;3.80;;;2.53;;
16522;SDS011;19889;52.546;13.348;2023-04-01T05:19:36;3.20;;;2.40;;
16522;SDS011;19889;52.546;13.348;2023-04-01T05:22:03;4.00;;;2.77;;
16522;SDS011;19889;52.546;13.348;2023-04-01T05:24:32;5.93;;;3.40;;
16522;SDS011;19889;52.546;13.348;2023-04-01T05:26:59;3.87;;;2.60;;
16522;SDS011;19889;52.546;13.348;2023-04-01T05:29:26;3.67;;;2.60;;
16522;SDS011;19889;52.546;13.348;2023-04-01T05:32:01;3.53;;;2.53;;
16522;SDS011;19889;52.546;13.348;2023-04-01T05:34:28;4.63;;;2.67;;
16522;SDS011;19889;52.546;13.348;2023-04-01T05:36:55;3.63;;;2.50;;
16522;SDS011;19889;52.546;13.348;2023-04-01T05:39:22;3.47;;;2.67;;
16522;SDS011;19889;52.546;13.348;2023-04-01T05:41:50;5.90;;;3.00;;
16522;SDS011;19889;52.546;13.348;2023-04-01T05:44:18;4.97;;;3.10;;
16522;SDS011;19889;52.546;13.348;2023-04-01T05:46:47;7.77;;;2.90;;
16522;SDS011;19889;52.546;13.348;2023-04-01T05:49:18;4.50;;;2.67;;
16522;SDS011;19889;52.546;13.348;2023-04-01T05:51:46;3.43;;;2.83;;
16522;SDS011;19889;52.546;13.348;2023-04-01T05:54:13;4.43;;;2.40;;
16522;SDS011;19889;52.546;13.348;2023-04-01T05:56:42;5.07;;;2.80;;
16522;SDS011;19889;52.546;13.348;2023-04-01T05:59:11;6.33;;;2.70;;
16522;SDS011;19889;52.546;13.348;2023-04-01T06:01:38;5.20;;;2.93;;
16522;SDS011;19889;52.546;13.348;2023-04-01T06:04:06;4.43;;;2.40;;
16522;SDS011;19889;52.546;13.348;2023-04-01T06:06:36;4.23;;;2.77;;
16522;SDS011;19889;52.546;13.348;2023-04-01T06:09:10;3.40;;;2.20;;
16522;SDS011;19889;52.546;13.348;2023-04-01T06:11:57;3.97;;;2.43;;
16522;SDS011;19889;52.546;13.348;2023-04-01T06:14:50;3.57;;;2.43;;
16522;SDS011;19889;52.546;13.348;2023-04-01T06:17:26;5.47;;;3.17;;
16522;SDS011;19889;52.546;13.348;2023-04-01T06:20:03;4.97;;;2.87;;
16522;SDS011;19889;52.546;13.348;2023-04-01T06:22:45;4.50;;;3.10;;
16522;SDS011;19889;52.546;13.348;2023-04-01T06:31:44;3.33;;;2.77;;
16522;SDS011;19889;52.546;13.348;2023-04-01T06:34:32;6.10;;;3.27;;
16522;SDS011;19889;52.546;13.348;2023-04-01T06:40:23;7.30;;;4.20;;
16522;SDS011;19889;52.546;13.348;2023-04-01T06:43:11;6.17;;;3.90;;
16522;SDS011;19889;52.546;13.348;2023-04-01T06:46:10;4.63;;;3.40;;
16522;SDS011;19889;52.546;13.348;2023-04-01T06:49:07;4.67;;;3.20;;
16522;SDS011;19889;52.546;13.348;2023-04-01T06:52:20;6.63;;;3.20;;
16522;SDS011;19889;52.546;13.348;2023-04-01T06:55:17;3.80;;;3.30;;
16522;SDS011;19889;52.546;13.348;2023-04-01T06:58:19;5.33;;;3.63;;
16522;SDS011;19889;52.546;13.348;2023-04-01T07:00:49;5.33;;;2.93;;
16522;SDS011;19889;52.546;13.348;2023-04-01T07:03:20;7.70;;;3.10;;
16522;SDS011;19889;52.546;13.348;2023-04-01T07:05:56;5.60;;;3.43;;
16522;SDS011;19889;52.546;13.348;2023-04-01T07:08:28;3.73;;;3.23;;
16522;SDS011;19889;52.546;13.348;2023-04-01T07:10:58;4.80;;;2.80;;
16522;SDS011;19889;52.546;13.348;2023-04-01T07:13:49;3.43;;;2.90;;
16522;SDS011;19889;52.546;13.348;2023-04-01T07:16:20;6.13;;;3.87;;
16522;SDS011;19889;52.546;13.348;2023-04-01T07:18:51;5.57;;;3.37;;
16522;SDS011;19889;52.546;13.348;2023-04-01T07:21:28;7.43;;;3.70;;
16522;SDS011;19889;52.546;13.348;2023-04-01T07:24:04;7.67;;;3.90;;
16522;SDS011;19889;52.546;13.348;2023-04-01T07:26:41;6.23;;;3.10;;
16522;SDS011;19889;52.546;13.348;2023-04-01T07:29:21;4.70;;;3.10;;
16522;SDS011;19889;52.546;13.348;2023-04-01T07:32:04;4.73;;;2.90;;
16522;SDS011;19889;52.546;13.348;2023-04-01T07:37:38;5.17;;;3.20;;
16522;SDS011;19889;52.546;13.348;2023-04-01T07:40:20;3.97;;;2.67;;
16522;SDS011;19889;52.546;13.348;2023-04-01T07:43:14;6.77;;;3.27;;
16522;SDS011;19889;52.546;13.348;2023-04-01T07:46:21;3.57;;;2.87;;
16522;SDS011;19889;52.546;13.348;2023-04-01T07:49:03;4.17;;;2.80;;
16522;SDS011;19889;52.546;13.348;2023-04-01T07:51:36;4.80;;;2.90;;
16522;SDS011;19889;52.546;13.348;2023-04-01T07:54:09;3.33;;;2.90;;
16522;SDS011;19889;52.546;13.348;2023-04-01T07:56:44;5.70;;;2.90;;
16522;SDS011;19889;52.546;13.348;2023-04-01T07:59:21;6.83;;;4.33;;
16522;SDS011;19889;52.546;13.348;2023-04-01T08:02:01;2.93;;;2.60;;
16522;SDS011;19889;52.546;13.348;2023-04-01T08:04:39;2.37;;;1.97;;
16522;SDS011;19889;52.546;13.348;2023-04-01T08:07:18;1.80;;;1.70;;
16522;SDS011;19889;52.546;13.348;2023-04-01T08:10:15;2.20;;;1.87;;
16522;SDS011;19889;52.546;13.348;2023-04-01T08:13:08;1.80;;;1.70;;
16522;SDS011;19889;52.546;13.348;2023-04-01T08:16:03;1.60;;;1.40;;
16522;SDS011;19889;52.546;13.348;2023-04-01T08:18:45;1.93;;;1.53;;
16522;SDS011;19889;52.546;13.348;2023-04-01T08:21:21;5.43;;;2.00;;
16522;SDS011;19889;52.546;13.348;2023-04-01T08:23:51;2.23;;;2.03;;
16522;SDS011;19889;52.546;13.348;2023-04-01T08:26:26;3.13;;;1.80;;
16522;SDS011;19889;52.546;13.348;2023-04-01T08:28:59;4.07;;;2.50;;
16522;SDS011;19889;52.546;13.348;2023-04-01T08:31:32;4.47;;;2.53;;
16522;SDS011;19889;52.546;13.348;2023-04-01T08:34:04;3.03;;;2.00;;
16522;SDS011;19889;52.546;13.348;2023-04-01T08:36:37;3.50;;;2.37;;
16522;SDS011;19889;52.546;13.348;2023-04-01T08:39:12;3.33;;;2.70;;
16522;SDS011;19889;52.546;13.348;2023-04-01T08:41:53;3.30;;;2.83;;
16522;SDS011;19889;52.546;13.348;2023-04-01T08:45:15;3.60;;;2.67;;
16522;SDS011;19889;52.546;13.348;2023-04-01T08:48:04;3.93;;;3.00;;
16522;SDS011;19889;52.546;13.348;2023-04-01T08:50:58;4.93;;;3.07;;
16522;SDS011;19889;52.546;13.348;2023-04-01T08:56:40;5.60;;;3.57;;
16522;SDS011;19889;52.546;13.348;2023-04-01T08:59:25;5.93;;;4.73;;
16522;SDS011;19889;52.546;13.348;2023-04-01T09:02:25;7.07;;;4.90;;
16522;SDS011;19889;52.546;13.348;2023-04-01T09:05:22;6.37;;;5.03;;
16522;SDS011;19889;52.546;13.348;2023-04-01T09:08:03;16.37;;;10.67;;
16522;SDS011;19889;52.546;13.348;2023-04-01T09:17:09;8.10;;;6.60;;
16522;SDS011;19889;52.546;13.348;2023-04-01T09:19:57;7.23;;;6.20;;
16522;SDS011;19889;52.546;13.348;2023-04-01T09:22:37;10.23;;;7.57;;
16522;SDS011;19889;52.546;13.348;2023-04-01T09:25:24;8.67;;;6.77;;
16522;SDS011;19889;52.546;13.348;2023-04-01T09:28:07;9.83;;;7.03;;
16522;SDS011;19889;52.546;13.348;2023-04-01T09:34:15;8.73;;;7.60;;
16522;SDS011;19889;52.546;13.348;2023-04-01T09:37:17;10.43;;;8.00;;
16522;SDS011;19889;52.546;13.348;2023-04-01T09:39:57;10.13;;;7.70;;
16522;SDS011;19889;52.546;13.348;2023-04-01T09:42:56;8.47;;;6.97;;
16522;SDS011;19889;52.546;13.348;2023-04-01T09:45:55;9.27;;;7.23;;
16522;SDS011;19889;52.546;13.348;2023-04-01T09:48:38;10.70;;;7.40;;
16522;SDS011;19889;52.546;13.348;2023-04-01T09:51:25;9.17;;;7.50;;
16522;SDS011;19889;52.546;13.348;2023-04-01T09:54:07;8.30;;;7.13;;
16522;SDS011;19889;52.546;13.348;2023-04-01T09:57:02;9.73;;;7.67;;
16522;SDS011;19889;52.546;13.348;2023-04-01T10:00:10;10.00;;;7.40;;
16522;SDS011;19889;52.546;13.348;2023-04-01T10:03:23;10.83;;;7.63;;
16522;SDS011;19889;52.546;13.348;2023-04-01T10:06:24;11.13;;;9.40;;
16522;SDS011;19889;52.546;13.348;2023-04-01T10:18:33;9.67;;;7.77;;
16522;SDS011;19889;52.546;13.348;2023-04-01T10:33:38;7.57;;;6.87;;
16522;SDS011;19889;52.546;13.348;2023-04-01T10:36:40;9.13;;;7.30;;
16522;SDS011;19889;52.546;13.348;2023-04-01T10:42:41;7.50;;;6.70;;
16522;SDS011;19889;52.546;13.348;2023-04-01T10:49:02;7.83;;;7.00;;
16522;SDS011;19889;52.546;13.348;2023-04-01T10:52:15;7.40;;;6.60;;
16522;SDS011;19889;52.546;13.348;2023-04-01T10:55:42;8.57;;;7.17;;
16522;SDS011;19889;52.546;13.348;2023-04-01T11:15:07;6.53;;;5.80;;
16522;SDS011;19889;52.546;13.348;2023-04-01T11:21:24;6.70;;;6.00;;
16522;SDS011;19889;52.546;13.348;2023-04-01T11:27:46;7.07;;;5.57;;
16522;SDS011;19889;52.546;13.348;2023-04-01T11:30:36;6.83;;;6.20;;
16522;SDS011;19889;52.546;13.348;2023-04-01T11:33:14;12.73;;;9.83;;
16522;SDS011;19889;52.546;13.348;2023-04-01T11:35:52;9.40;;;7.40;;
16522;SDS011;19889;52.546;13.348;2023-04-01T11:38:35;7.47;;;6.67;;
16522;SDS011;19889;52.546;13.348;2023-04-01T11:41:49;7.00;;;6.30;;
16522;SDS011;19889;52.546;13.348;2023-04-01T11:44:43;6.43;;;5.83;;
16522;SDS011;19889;52.546;13.348;2023-04-01T11:47:28;8.07;;;6.60;;
16522;SDS011;19889;52.546;13.348;2023-04-01T11:50:17;7.73;;;6.93;;
16522;SDS011;19889;52.546;13.348;2023-04-01T11:52:55;7.63;;;6.87;;
16522;SDS011;19889;52.546;13.348;2023-04-01T11:55:36;8.33;;;7.53;;
16522;SDS011;19889;52.546;13.348;2023-04-01T11:58:15;9.90;;;8.43;;
16522;SDS011;19889;52.546;13.348;2023-04-01T12:01:06;8.63;;;7.70;;
16522;SDS011;19889;52.546;13.348;2023-04-01T12:03:56;8.73;;;7.77;;
16522;SDS011;19889;52.546;13.348;2023-04-01T12:06:39;9.27;;;8.10;;
16522;SDS011;19889;52.546;13.348;2023-04-01T12:09:16;9.50;;;8.30;;
16522;SDS011;19889;52.546;13.348;2023-04-01T12:11:51;9.47;;;8.47;;
16522;SDS011;19889;52.546;13.348;2023-04-01T12:14:26;8.00;;;7.20;;
16522;SDS011;19889;52.546;13.348;2023-04-01T12:17:02;9.50;;;7.53;;
16522;SDS011;19889;52.546;13.348;2023-04-01T12:19:39;10.20;;;8.27;;
16522;SDS011;19889;52.546;13.348;2023-04-01T12:22:19;8.70;;;7.80;;
16522;SDS011;19889;52.546;13.348;2023-04-01T12:24:56;8.57;;;7.67;;
16522;SDS011;19889;52.546;13.348;2023-04-01T12:27:32;8.57;;;7.63;;
16522;SDS011;19889;52.546;13.348;2023-04-01T12:33:40;7.90;;;7.03;;
16522;SDS011;19889;52.546;13.348;2023-04-01T12:36:30;9.27;;;7.50;;
16522;SDS011;19889;52.546;13.348;2023-04-01T12:39:27;13.33;;;10.37;;
16522;SDS011;19889;52.546;13.348;2023-04-01T12:42:17;8.60;;;7.53;;
16522;SDS011;19889;52.546;13.348;2023-04-01T12:45:00;8.83;;;7.93;;
16522;SDS011;19889;52.546;13.348;2023-04-01T12:47:43;9.20;;;8.07;;
16522;SDS011;19889;52.546;13.348;2023-04-01T12:50:25;9.30;;;7.57;;
16522;SDS011;19889;52.546;13.348;2023-04-01T12:53:22;8.70;;;7.83;;
16522;SDS011;19889;52.546;13.348;2023-04-01T12:56:06;9.10;;;8.20;;
16522;SDS011;19889;52.546;13.348;2023-04-01T12:58:54;9.30;;;8.20;;
16522;SDS011;19889;52.546;13.348;2023-04-01T13:01:55;9.77;;;8.40;;
16522;SDS011;19889;52.546;13.348;2023-04-01T13:04:33;9.47;;;8.53;;
16522;SDS011;19889;52.546;13.348;2023-04-01T13:10:15;9.83;;;8.83;;
16522;SDS011;19889;52.546;13.348;2023-04-01T13:12:56;9.53;;;8.63;;
16522;SDS011;19889;52.546;13.348;2023-04-01T13:15:36;10.70;;;9.27;;
16522;SDS011;19889;52.546;13.348;2023-04-01T13:18:12;9.00;;;7.93;;
16522;SDS011;19889;52.546;13.348;2023-04-01T13:20:53;9.57;;;8.17;;
16522;SDS011;19889;52.546;13.348;2023-04-01T13:23:30;10.37;;;8.33;;
16522;SDS011;19889;52.546;13.348;2023-04-01T13:26:09;9.97;;;8.83;;
16522;SDS011;19889;52.546;13.348;2023-04-01T13:28:46;9.70;;;8.60;;
16522;SDS011;19889;52.546;13.348;2023-04-01T13:31:22;11.57;;;8.80;;
16522;SDS011;19889;52.546;13.348;2023-04-01T13:34:05;9.20;;;7.80;;
16522;SDS011;19889;52.546;13.348;2023-04-01T13:36:45;8.43;;;7.53;;
16522;SDS011;19889;52.546;13.348;2023-04-01T13:39:24;9.07;;;8.17;;
16522;SDS011;19889;52.546;13.348;2023-04-01T13:42:08;8.67;;;7.77;;
16522;SDS011;19889;52.546;13.348;2023-04-01T13:44:44;9.87;;;8.07;;
16522;SDS011;19889;52.546;13.348;2023-04-01T13:47:23;6.53;;;5.93;;
16522;SDS011;19889;52.546;13.348;2023-04-01T13:50:07;7.43;;;6.53;;
16522;SDS011;19889;52.546;13.348;2023-04-01T13:55:49;7.87;;;5.30;;
16522;SDS011;19889;52.546;13.348;2023-04-01T13:58:40;5.83;;;5.00;;
16522;SDS011;19889;52.546;13.348;2023-04-01T14:01:26;7.50;;;5.00;;
16522;SDS011;19889;52.546;13.348;2023-04-01T14:07:08;4.23;;;3.93;;
16522;SDS011;19889;52.546;13.348;2023-04-01T14:09:44;4.83;;;4.30;;
16522;SDS011;19889;52.546;13.348;2023-04-01T14:12:26;5.63;;;4.40;;
16522;SDS011;19889;52.546;13.348;2023-04-01T14:15:03;3.47;;;3.17;;
16522;SDS011;19889;52.546;13.348;2023-04-01T14:18:03;4.97;;;3.63;;
16522;SDS011;19889;52.546;13.348;2023-04-01T14:20:52;4.97;;;3.90;;
16522;SDS011;19889;52.546;13.348;2023-04-01T14:23:39;5.33;;;4.50;;
16522;SDS011;19889;52.546;13.348;2023-04-01T14:26:26;4.57;;;3.67;;
16522;SDS011;19889;52.546;13.348;2023-04-01T14:29:02;4.83;;;3.67;;
16522;SDS011;19889;52.546;13.348;2023-04-01T14:31:46;5.50;;;3.70;;
16522;SDS011;19889;52.546;13.348;2023-04-01T14:34:24;6.33;;;4.23;;
16522;SDS011;19889;52.546;13.348;2023-04-01T14:37:07;4.23;;;3.67;;
16522;SDS011;19889;52.546;13.348;2023-04-01T14:39:57;5.83;;;4.20;;
16522;SDS011;19889;52.546;13.348;2023-04-01T14:42:59;5.80;;;4.83;;
16522;SDS011;19889;52.546;13.348;2023-04-01T14:45:51;5.80;;;3.93;;
16522;SDS011;19889;52.546;13.348;2023-04-01T14:48:32;3.60;;;3.30;;
16522;SDS011;19889;52.546;13.348;2023-04-01T14:51:09;5.03;;;3.60;;
16522;SDS011;19889;52.546;13.348;2023-04-01T14:53:42;4.10;;;3.20;;
16522;SDS011;19889;52.546;13.348;2023-04-01T14:56:22;3.80;;;3.30;;
16522;SDS011;19889;52.546;13.348;2023-04-01T14:59:04;3.63;;;2.90;;
16522;SDS011;19889;52.546;13.348;2023-04-01T15:01:37;3.67;;;3.27;;
16522;SDS011;19889;52.546;13.348;2023-04-01T15:04:15;3.60;;;3.00;;
16522;SDS011;19889;52.546;13.348;2023-04-01T15:07:11;2.83;;;2.60;;
16522;SDS011;19889;52.546;13.348;2023-04-01T15:09:58;4.67;;;3.23;;
16522;SDS011;19889;52.546;13.348;2023-04-01T15:12:32;3.57;;;2.80;;
16522;SDS011;19889;52.546;13.348;2023-04-01T15:15:12;7.27;;;5.20;;
16522;SDS011;19889;52.546;13.348;2023-04-01T15:17:51;4.00;;;3.60;;
16522;SDS011;19889;52.546;13.348;2023-04-01T15:20:36;6.13;;;3.50;;
16522;SDS011;19889;52.546;13.348;2023-04-01T15:23:21;4.27;;;3.60;;
16522;SDS011;19889;52.546;13.348;2023-04-01T15:26:11;4.47;;;3.40;;
16522;SDS011;19889;52.546;13.348;2023-04-01T15:28:49;5.27;;;4.37;;
16522;SDS011;19889;52.546;13.348;2023-04-01T15:31:26;4.70;;;4.20;;
16522;SDS011;19889;52.546;13.348;2023-04-01T15:34:13;5.73;;;4.60;;
16522;SDS011;19889;52.546;13.348;2023-04-01T15:36:50;8.63;;;6.20;;
16522;SDS011;19889;52.546;13.348;2023-04-01T15:39:24;7.07;;;5.53;;
16522;SDS011;19889;52.546;13.348;2023-04-01T15:42:14;6.07;;;5.10;;
16522;SDS011;19889;52.546;13.348;2023-04-01T15:45:00;6.80;;;5.10;;
16522;SDS011;19889;52.546;13.348;2023-04-01T15:47:36;6.10;;;4.70;;
16522;SDS011;19889;52.546;13.348;2023-04-01T15:50:17;6.10;;;4.70;;
16522;SDS011;19889;52.546;13.348;2023-04-01T15:56:09;6.03;;;4.60;;
16522;SDS011;19889;52.546;13.348;2023-04-01T15:58:53;7.33;;;4.93;;
16522;SDS011;19889;52.546;13.348;2023-04-01T16:01:32;5.63;;;4.33;;
16522;SDS011;19889;52.546;13.348;2023-04-01T16:04:09;12.73;;;8.60;;
16522;SDS011;19889;52.546;13.348;2023-04-01T16:06:53;6.40;;;5.30;;
16522;SDS011;19889;52.546;13.348;2023-04-01T16:09:37;6.10;;;4.47;;
16522;SDS011;19889;52.546;13.348;2023-04-01T16:12:15;4.67;;;4.13;;
16522;SDS011;19889;52.546;13.348;2023-04-01T16:14:51;5.73;;;4.33;;
16522;SDS011;19889;52.546;13.348;2023-04-01T16:17:31;4.93;;;4.33;;
16522;SDS011;19889;52.546;13.348;2023-04-01T16:20:17;4.27;;;3.87;;
16522;SDS011;19889;52.546;13.348;2023-04-01T16:22:49;6.57;;;4.43;;
16522;SDS011;19889;52.546;13.348;2023-04-01T16:25:26;6.10;;;4.03;;
16522;SDS011;19889;52.546;13.348;2023-04-01T16:28:04;5.37;;;4.17;;
16522;SDS011;19889;52.546;13.348;2023-04-01T16:30:46;3.50;;;3.20;;
16522;SDS011;19889;52.546;13.348;2023-04-01T16:33:21;4.50;;;3.77;;
16522;SDS011;19889;52.546;13.348;2023-04-01T16:35:55;4.00;;;3.50;;
16522;SDS011;19889;52.546;13.348;2023-04-01T16:38:26;4.10;;;3.47;;
16522;SDS011;19889;52.546;13.348;2023-04-01T16:41:10;3.90;;;3.50;;
16522;SDS011;19889;52.546;13.348;2023-04-01T16:43:42;4.70;;;3.97;;
16522;SDS011;19889;52.546;13.348;2023-04-01T16:46:26;4.63;;;3.83;;
16522;SDS011;19889;52.546;13.348;2023-04-01T16:49:02;3.97;;;3.60;;
16522;SDS011;19889;52.546;13.348;2023-04-01T16:51:44;12.73;;;7.43;;
16522;SDS011;19889;52.546;13.348;2023-04-01T16:54:16;6.23;;;3.93;;
16522;SDS011;19889;52.546;13.348;2023-04-01T16:56:55;4.20;;;3.80;;
16522;SDS011;19889;52.546;13.348;2023-04-01T16:59:29;4.60;;;3.07;;
16522;SDS011;19889;52.546;13.348;2023-04-01T17:02:02;3.87;;;2.90;;
16522;SDS011;19889;52.546;13.348;2023-04-01T17:04:36;4.53;;;3.33;;
16522;SDS011;19889;52.546;13.348;2023-04-01T17:07:11;3.30;;;3.00;;
16522;SDS011;19889;52.546;13.348;2023-04-01T17:09:51;2.90;;;2.70;;
16522;SDS011;19889;52.546;13.348;2023-04-01T17:12:30;4.73;;;3.57;;
16522;SDS011;19889;52.546;13.348;2023-04-01T17:15:04;3.50;;;3.20;;